sensor_id;sensor_type;location;lat;lon;timestamp;pressure;altitude;pressure_sealevel;temperature;humidity
77685;BME280;66844;46.092;18.268;2023-04-01T00:00:05;98077.19;;;9.52;87.25
77685;BME280;66844;46.092;18.268;2023-04-01T00:00:35;98079.09;;;9.50;87.23
77685;BME280;66844;46.092;18.268;2023-04-01T00:01:06;98068.47;;;9.50;87.21
77685;BME280;66844;46.092;18.268;2023-04-01T00:01:37;98070.16;;;9.51;87.35
77685;BME280;66844;46.092;18.268;2023-04-01T00:02:08;98078.97;;;9.51;87.21
77685;BME280;66844;46.092;18.268;2023-04-01T00:02:38;98074.88;;;9.47;87.71
77685;BME280;66844;46.092;18.268;2023-04-01T00:03:09;98068.09;;;9.43;87.77
77685;BME280;66844;46.092;18.268;2023-04-01T00:03:40;98076.06;;;9.43;87.75
77685;BME280;66844;46.092;18.268;2023-04-01T00:04:11;98070.50;;;9.46;87.79
77685;BME280;66844;46.092;18.268;2023-04-01T00:04:41;98068.44;;;9.39;88.26
77685;BME280;66844;46.092;18.268;2023-04-01T00:05:13;98077.47;;;9.36;87.86
77685;BME280;66844;46.092;18.268;2023-04-01T00:05:44;98077.16;;;9.41;87.70
77685;BME280;66844;46.092;18.268;2023-04-01T00:06:17;98071.94;;;9.39;87.43
77685;BME280;66844;46.092;18.268;2023-04-01T00:06:48;98067.97;;;9.34;87.84
77685;BME280;66844;46.092;18.268;2023-04-01T00:07:19;98069.19;;;9.41;87.82
77685;BME280;66844;46.092;18.268;2023-04-01T00:07:50;98075.78;;;9.35;88.19
77685;BME280;66844;46.092;18.268;2023-04-01T00:08:21;98075.78;;;9.35;88.08
77685;BME280;66844;46.092;18.268;2023-04-01T00:08:52;98069.75;;;9.33;88.30
77685;BME280;66844;46.092;18.268;2023-04-01T00:09:23;98069.53;;;9.36;88.01
77685;BME280;66844;46.092;18.268;2023-04-01T00:09:54;98063.25;;;9.37;88.05
77685;BME280;66844;46.092;18.268;2023-04-01T00:10:24;98072.19;;;9.36;87.74
77685;BME280;66844;46.092;18.268;2023-04-01T00:10:55;98071.47;;;9.34;87.77
77685;BME280;66844;46.092;18.268;2023-04-01T00:11:27;98079.41;;;9.34;88.09
77685;BME280;66844;46.092;18.268;2023-04-01T00:11:58;98063.50;;;9.34;88.17
77685;BME280;66844;46.092;18.268;2023-04-01T00:12:28;98070.59;;;9.34;87.94
77685;BME280;66844;46.092;18.268;2023-04-01T00:12:59;98080.84;;;9.38;87.81
77685;BME280;66844;46.092;18.268;2023-04-01T00:13:30;98066.75;;;9.38;87.89
77685;BME280;66844;46.092;18.268;2023-04-01T00:14:00;98070.97;;;9.40;87.60
77685;BME280;66844;46.092;18.268;2023-04-01T00:14:31;98079.47;;;9.45;87.74
77685;BME280;66844;46.092;18.268;2023-04-01T00:15:03;98069.78;;;9.44;87.66
77685;BME280;66844;46.092;18.268;2023-04-01T00:15:35;98074.75;;;9.49;87.50
77685;BME280;66844;46.092;18.268;2023-04-01T00:16:07;98073.06;;;9.48;87.64
77685;BME280;66844;46.092;18.268;2023-04-01T00:16:38;98070.16;;;9.51;87.51
77685;BME280;66844;46.092;18.268;2023-04-01T00:17:08;98068.00;;;9.45;87.38
77685;BME280;66844;46.092;18.268;2023-04-01T00:17:39;98068.09;;;9.43;87.71
77685;BME280;66844;46.092;18.268;2023-04-01T00:18:10;98061.09;;;9.42;87.54
77685;BME280;66844;46.092;18.268;2023-04-01T00:18:41;98065.69;;;9.40;87.18
77685;BME280;66844;46.092;18.268;2023-04-01T00:19:12;98069.91;;;9.43;87.15
77685;BME280;66844;46.092;18.268;2023-04-01T00:19:42;98062.88;;;9.42;87.16
77685;BME280;66844;46.092;18.268;2023-04-01T00:20:14;98059.88;;;9.46;87.01
77685;BME280;66844;46.092;18.268;2023-04-01T00:20:49;98067.63;;;9.49;86.78
77685;BME280;66844;46.092;18.268;2023-04-01T00:21:21;98066.31;;;9.55;86.71
77685;BME280;66844;46.092;18.268;2023-04-01T00:21:52;98071.03;;;9.51;86.75
77685;BME280;66844;46.092;18.268;2023-04-01T00:22:24;98062.44;;;9.48;87.25
77685;BME280;66844;46.092;18.268;2023-04-01T00:22:56;98068.72;;;9.47;87.19
77685;BME280;66844;46.092;18.268;2023-04-01T00:23:27;98056.63;;;9.43;87.31
77685;BME280;66844;46.092;18.268;2023-04-01T00:23:58;98061.94;;;9.43;87.24
77685;BME280;66844;46.092;18.268;2023-04-01T00:24:29;98055.91;;;9.41;87.43
77685;BME280;66844;46.092;18.268;2023-04-01T00:25:00;98054.09;;;9.41;87.24
77685;BME280;66844;46.092;18.268;2023-04-01T00:25:31;98050.69;;;9.39;87.04
77685;BME280;66844;46.092;18.268;2023-04-01T00:26:03;98044.69;;;9.37;87.12
77685;BME280;66844;46.092;18.268;2023-04-01T00:26:34;98048.28;;;9.36;87.27
77685;BME280;66844;46.092;18.268;2023-04-01T00:27:05;98053.34;;;9.39;87.55
77685;BME280;66844;46.092;18.268;2023-04-01T00:27:35;98047.81;;;9.42;87.25
77685;BME280;66844;46.092;18.268;2023-04-01T00:28:06;98046.63;;;9.46;87.07
77685;BME280;66844;46.092;18.268;2023-04-01T00:28:37;98038.78;;;9.45;86.95
77685;BME280;66844;46.092;18.268;2023-04-01T00:29:08;98041.44;;;9.45;87.16
77685;BME280;66844;46.092;18.268;2023-04-01T00:29:44;98045.16;;;9.42;86.84
77685;BME280;66844;46.092;18.268;2023-04-01T00:30:15;98037.19;;;9.42;87.06
77685;BME280;66844;46.092;18.268;2023-04-01T00:30:46;98040.34;;;9.47;86.86
77685;BME280;66844;46.092;18.268;2023-04-01T00:31:17;98040.34;;;9.47;86.74
77685;BME280;66844;46.092;18.268;2023-04-01T00:31:48;98035.16;;;9.46;86.96
77685;BME280;66844;46.092;18.268;2023-04-01T00:32:19;98038.66;;;9.46;87.20
77685;BME280;66844;46.092;18.268;2023-04-01T00:32:53;98046.84;;;9.43;87.43
77685;BME280;66844;46.092;18.268;2023-04-01T00:33:24;98043.34;;;9.43;87.64
77685;BME280;66844;46.092;18.268;2023-04-01T00:33:55;98040.22;;;9.38;87.63
77685;BME280;66844;46.092;18.268;2023-04-01T00:34:26;98043.50;;;9.41;87.10
77685;BME280;66844;46.092;18.268;2023-04-01T00:34:57;98043.59;;;9.40;86.94
77685;BME280;66844;46.092;18.268;2023-04-01T00:35:29;98041.88;;;9.39;86.99
77685;BME280;66844;46.092;18.268;2023-04-01T00:36:14;98034.69;;;9.41;87.49
77685;BME280;66844;46.092;18.268;2023-04-01T00:36:45;98035.28;;;9.44;87.36
77685;BME280;66844;46.092;18.268;2023-04-01T00:37:16;98035.91;;;9.48;86.88
77685;BME280;66844;46.092;18.268;2023-04-01T00:37:47;98036.59;;;9.50;86.78
77685;BME280;66844;46.092;18.268;2023-04-01T00:38:18;98032.63;;;9.44;87.40
77685;BME280;66844;46.092;18.268;2023-04-01T00:38:49;98027.66;;;9.40;87.52
77685;BME280;66844;46.092;18.268;2023-04-01T00:39:20;98029.13;;;9.44;87.14
77685;BME280;66844;46.092;18.268;2023-04-01T00:39:52;98031.53;;;9.47;87.46
77685;BME280;66844;46.092;18.268;2023-04-01T00:40:36;98032.50;;;9.46;87.14
77685;BME280;66844;46.092;18.268;2023-04-01T00:41:08;98027.09;;;9.47;87.14
77685;BME280;66844;46.092;18.268;2023-04-01T00:41:41;98028.88;;;9.47;86.75
77685;BME280;66844;46.092;18.268;2023-04-01T00:42:12;98025.16;;;9.49;86.63
77685;BME280;66844;46.092;18.268;2023-04-01T00:42:44;98033.00;;;9.51;86.59
77685;BME280;66844;46.092;18.268;2023-04-01T00:43:17;98023.34;;;9.50;86.49
77685;BME280;66844;46.092;18.268;2023-04-01T00:43:51;98027.94;;;9.48;86.67
77685;BME280;66844;46.092;18.268;2023-04-01T00:44:25;98027.94;;;9.48;86.21
77685;BME280;66844;46.092;18.268;2023-04-01T00:44:56;98023.34;;;9.50;85.98
77685;BME280;66844;46.092;18.268;2023-04-01T00:45:35;98027.34;;;9.55;86.00
77685;BME280;66844;46.092;18.268;2023-04-01T00:46:06;98029.88;;;9.57;85.69
77685;BME280;66844;46.092;18.268;2023-04-01T00:46:37;98028.06;;;9.57;85.76
77685;BME280;66844;46.092;18.268;2023-04-01T00:47:08;98024.69;;;9.55;85.99
77685;BME280;66844;46.092;18.268;2023-04-01T00:47:39;98020.34;;;9.54;85.88
77685;BME280;66844;46.092;18.268;2023-04-01T00:48:15;98025.75;;;9.53;85.69
77685;BME280;66844;46.092;18.268;2023-04-01T00:48:55;98024.09;;;9.52;85.75
77685;BME280;66844;46.092;18.268;2023-04-01T00:49:39;98017.44;;;9.57;85.77
77685;BME280;66844;46.092;18.268;2023-04-01T00:50:11;98021.78;;;9.58;85.78
77685;BME280;66844;46.092;18.268;2023-04-01T00:50:48;98023.75;;;9.56;85.83
77685;BME280;66844;46.092;18.268;2023-04-01T00:51:23;98018.44;;;9.56;85.88
77685;BME280;66844;46.092;18.268;2023-04-01T00:51:57;98020.84;;;9.59;85.87
77685;BME280;66844;46.092;18.268;2023-04-01T00:52:30;98012.88;;;9.59;86.37
77685;BME280;66844;46.092;18.268;2023-04-01T00:53:02;98009.63;;;9.56;86.24
77685;BME280;66844;46.092;18.268;2023-04-01T00:53:38;98014.41;;;9.51;86.47
77685;BME280;66844;46.092;18.268;2023-04-01T00:54:11;98019.00;;;9.49;86.87
77685;BME280;66844;46.092;18.268;2023-04-01T00:54:46;98013.72;;;9.49;87.49
77685;BME280;66844;46.092;18.268;2023-04-01T00:55:20;98003.44;;;9.44;87.18
77685;BME280;66844;46.092;18.268;2023-04-01T00:56:05;97997.16;;;9.45;87.41
77685;BME280;66844;46.092;18.268;2023-04-01T00:57:10;98014.41;;;9.51;86.98
77685;BME280;66844;46.092;18.268;2023-04-01T00:57:45;98002.34;;;9.47;87.07
77685;BME280;66844;46.092;18.268;2023-04-01T00:58:20;97999.94;;;9.44;87.48
77685;BME280;66844;46.092;18.268;2023-04-01T00:58:56;98000.16;;;9.41;87.25
77685;BME280;66844;46.092;18.268;2023-04-01T00:59:39;97998.00;;;9.46;87.48
77685;BME280;66844;46.092;18.268;2023-04-01T01:00:13;97998.72;;;9.37;87.31
77685;BME280;66844;46.092;18.268;2023-04-01T01:00:47;98000.28;;;9.39;87.63
77685;BME280;66844;46.092;18.268;2023-04-01T01:01:21;98000.41;;;9.38;87.31
77685;BME280;66844;46.092;18.268;2023-04-01T01:01:54;97994.13;;;9.39;87.26
77685;BME280;66844;46.092;18.268;2023-04-01T01:02:24;97992.78;;;9.33;87.70
77685;BME280;66844;46.092;18.268;2023-04-01T01:02:55;97998.94;;;9.34;87.70
77685;BME280;66844;46.092;18.268;2023-04-01T01:03:27;97994.00;;;9.29;87.98
77685;BME280;66844;46.092;18.268;2023-04-01T01:03:58;97999.53;;;9.26;88.23
77685;BME280;66844;46.092;18.268;2023-04-01T01:04:32;97990.59;;;9.27;88.38
77685;BME280;66844;46.092;18.268;2023-04-01T01:05:03;97986.97;;;9.28;88.30
77685;BME280;66844;46.092;18.268;2023-04-01T01:05:52;97993.38;;;9.25;87.74
77685;BME280;66844;46.092;18.268;2023-04-01T01:07:43;97997.47;;;9.18;89.00
77685;BME280;66844;46.092;18.268;2023-04-01T01:10:09;98015.31;;;9.27;89.33
77685;BME280;66844;46.092;18.268;2023-04-01T01:10:44;98019.16;;;9.23;89.15
77685;BME280;66844;46.092;18.268;2023-04-01T01:11:28;98020.88;;;9.24;89.26
77685;BME280;66844;46.092;18.268;2023-04-01T01:12:23;98016.50;;;9.23;89.43
77685;BME280;66844;46.092;18.268;2023-04-01T01:13:02;98005.28;;;9.20;89.32
77685;BME280;66844;46.092;18.268;2023-04-01T01:13:43;98013.47;;;9.17;89.86
77685;BME280;66844;46.092;18.268;2023-04-01T01:14:29;98011.59;;;9.19;89.35
77685;BME280;66844;46.092;18.268;2023-04-01T01:15:20;98019.03;;;9.14;89.62
77685;BME280;66844;46.092;18.268;2023-04-01T01:16:04;98011.06;;;9.14;89.53
77685;BME280;66844;46.092;18.268;2023-04-01T01:16:43;98012.78;;;9.15;89.84
77685;BME280;66844;46.092;18.268;2023-04-01T01:18:03;98017.94;;;9.16;89.98
77685;BME280;66844;46.092;18.268;2023-04-01T01:18:49;98013.81;;;9.12;89.58
77685;BME280;66844;46.092;18.268;2023-04-01T01:22:27;97998.31;;;9.19;89.42
77685;BME280;66844;46.092;18.268;2023-04-01T01:23:23;98000.97;;;9.19;89.36
77685;BME280;66844;46.092;18.268;2023-04-01T01:25:59;98009.50;;;9.11;89.98
77685;BME280;66844;46.092;18.268;2023-04-01T01:26:52;97980.44;;;9.10;90.01
77685;BME280;66844;46.092;18.268;2023-04-01T01:27:24;98011.16;;;9.12;89.92
77685;BME280;66844;46.092;18.268;2023-04-01T01:31:37;98011.88;;;9.03;90.32
77685;BME280;66844;46.092;18.268;2023-04-01T01:34:27;98015.47;;;9.02;90.63
77685;BME280;66844;46.092;18.268;2023-04-01T01:35:19;98011.88;;;9.03;90.85
77685;BME280;66844;46.092;18.268;2023-04-01T01:35:55;98012.84;;;9.02;90.63
77685;BME280;66844;46.092;18.268;2023-04-01T01:36:32;98015.47;;;9.02;90.32
77685;BME280;66844;46.092;18.268;2023-04-01T01:37:13;98032.25;;;9.03;90.61
77685;BME280;66844;46.092;18.268;2023-04-01T01:37:46;98017.28;;;9.02;90.95
77685;BME280;66844;46.092;18.268;2023-04-01T01:38:31;98016.34;;;9.03;90.44
77685;BME280;66844;46.092;18.268;2023-04-01T01:39:06;97995.97;;;9.03;90.58
77685;BME280;66844;46.092;18.268;2023-04-01T01:39:39;97997.16;;;8.99;91.09
77685;BME280;66844;46.092;18.268;2023-04-01T01:40:13;98019.22;;;9.00;91.24
77685;BME280;66844;46.092;18.268;2023-04-01T01:40:49;98012.13;;;9.00;90.75
77685;BME280;66844;46.092;18.268;2023-04-01T01:41:25;98008.72;;;8.98;90.71
77685;BME280;66844;46.092;18.268;2023-04-01T01:42:01;98015.59;;;9.01;90.30
77685;BME280;66844;46.092;18.268;2023-04-01T01:42:38;98005.63;;;9.04;90.89
77685;BME280;66844;46.092;18.268;2023-04-01T01:43:14;98010.28;;;9.01;91.10
77685;BME280;66844;46.092;18.268;2023-04-01T01:43:48;98009.09;;;9.05;90.69
77685;BME280;66844;46.092;18.268;2023-04-01T01:44:21;98007.19;;;9.07;90.88
77685;BME280;66844;46.092;18.268;2023-04-01T01:44:55;97997.78;;;9.03;90.91
77685;BME280;66844;46.092;18.268;2023-04-01T01:45:28;98012.31;;;8.97;91.24
77685;BME280;66844;46.092;18.268;2023-04-01T01:46:06;98014.31;;;9.06;90.86
77685;BME280;66844;46.092;18.268;2023-04-01T01:46:39;98008.28;;;9.04;90.75
77685;BME280;66844;46.092;18.268;2023-04-01T01:47:14;98012.59;;;9.05;90.59
77685;BME280;66844;46.092;18.268;2023-04-01T01:47:47;98021.53;;;9.04;91.07
77685;BME280;66844;46.092;18.268;2023-04-01T01:48:19;98013.69;;;9.03;91.25
77685;BME280;66844;46.092;18.268;2023-04-01T01:48:52;98004.63;;;9.05;90.86
77685;BME280;66844;46.092;18.268;2023-04-01T01:49:24;98009.09;;;9.05;91.26
77685;BME280;66844;46.092;18.268;2023-04-01T01:49:56;98016.00;;;9.07;91.41
77685;BME280;66844;46.092;18.268;2023-04-01T01:50:28;98012.72;;;9.04;91.33
77685;BME280;66844;46.092;18.268;2023-04-01T01:50:59;97998.63;;;9.03;91.07
77685;BME280;66844;46.092;18.268;2023-04-01T01:51:30;97994.16;;;9.04;91.31
77685;BME280;66844;46.092;18.268;2023-04-01T01:52:01;98012.84;;;9.02;91.37
77685;BME280;66844;46.092;18.268;2023-04-01T01:52:31;98005.63;;;9.04;91.62
77685;BME280;66844;46.092;18.268;2023-04-01T01:53:04;98012.72;;;9.04;91.65
77685;BME280;66844;46.092;18.268;2023-04-01T01:53:35;98012.72;;;9.04;91.95
77685;BME280;66844;46.092;18.268;2023-04-01T01:54:06;98007.53;;;9.02;91.69
77685;BME280;66844;46.092;18.268;2023-04-01T01:55:27;98010.06;;;9.04;92.19
77685;BME280;66844;46.092;18.268;2023-04-01T01:55:58;97987.25;;;9.01;92.14
77685;BME280;66844;46.092;18.268;2023-04-01T01:56:30;98001.38;;;9.02;92.42
77685;BME280;66844;46.092;18.268;2023-04-01T01:57:08;97998.09;;;8.98;91.86
77685;BME280;66844;46.092;18.268;2023-04-01T01:57:41;98001.72;;;8.97;92.36
77685;BME280;66844;46.092;18.268;2023-04-01T01:58:33;97996.41;;;8.97;92.35
77685;BME280;66844;46.092;18.268;2023-04-01T01:59:12;98007.75;;;8.99;92.73
77685;BME280;66844;46.092;18.268;2023-04-01T01:59:47;98000.41;;;9.03;92.30
77685;BME280;66844;46.092;18.268;2023-04-01T02:00:19;97997.16;;;8.99;92.38
77685;BME280;66844;46.092;18.268;2023-04-01T02:01:03;97998.84;;;9.00;92.02
77685;BME280;66844;46.092;18.268;2023-04-01T02:01:40;98005.34;;;8.96;92.78
77685;BME280;66844;46.092;18.268;2023-04-01T02:02:13;98001.72;;;8.97;92.43
77685;BME280;66844;46.092;18.268;2023-04-01T02:02:47;97988.34;;;8.99;92.56
77685;BME280;66844;46.092;18.268;2023-04-01T02:03:21;98006.91;;;8.99;93.02
77685;BME280;66844;46.092;18.268;2023-04-01T02:03:55;97991.84;;;8.99;93.24
77685;BME280;66844;46.092;18.268;2023-04-01T02:04:27;97999.66;;;9.01;92.79
77685;BME280;66844;46.092;18.268;2023-04-01T02:04:58;97996.19;;;9.00;92.72
77685;BME280;66844;46.092;18.268;2023-04-01T02:05:30;98004.03;;;9.02;92.65
77685;BME280;66844;46.092;18.268;2023-04-01T02:06:06;98000.53;;;9.01;92.78
77685;BME280;66844;46.092;18.268;2023-04-01T02:06:42;98011.88;;;9.03;92.91
77685;BME280;66844;46.092;18.268;2023-04-01T02:07:21;98007.44;;;9.04;92.83
77685;BME280;66844;46.092;18.268;2023-04-01T02:08:13;98001.59;;;8.99;93.12
77685;BME280;66844;46.092;18.268;2023-04-01T02:09:08;98009.56;;;8.99;93.07
77685;BME280;66844;46.092;18.268;2023-04-01T02:09:41;98007.88;;;8.98;93.29
77685;BME280;66844;46.092;18.268;2023-04-01T02:10:14;97999.81;;;8.99;92.91
77685;BME280;66844;46.092;18.268;2023-04-01T02:10:59;98014.03;;;8.98;92.89
77685;BME280;66844;46.092;18.268;2023-04-01T02:11:43;98007.75;;;8.99;92.59
77685;BME280;66844;46.092;18.268;2023-04-01T02:12:19;98003.31;;;9.00;92.84
77685;BME280;66844;46.092;18.268;2023-04-01T02:12:55;98000.66;;;9.00;93.04
77685;BME280;66844;46.092;18.268;2023-04-01T02:13:38;98007.88;;;8.98;93.34
77685;BME280;66844;46.092;18.268;2023-04-01T02:14:23;98014.03;;;8.98;93.27
77685;BME280;66844;46.092;18.268;2023-04-01T02:15:11;98012.84;;;9.02;92.65
77685;BME280;66844;46.092;18.268;2023-04-01T02:15:47;98009.31;;;9.02;92.48
77685;BME280;66844;46.092;18.268;2023-04-01T02:16:24;98003.31;;;9.00;92.70
77685;BME280;66844;46.092;18.268;2023-04-01T02:17:07;98005.44;;;8.95;92.00
77685;BME280;66844;46.092;18.268;2023-04-01T02:17:43;98000.03;;;8.96;92.28
77685;BME280;66844;46.092;18.268;2023-04-01T02:18:17;98004.97;;;9.01;92.03
77685;BME280;66844;46.092;18.268;2023-04-01T02:18:52;98001.72;;;8.97;92.02
77685;BME280;66844;46.092;18.268;2023-04-01T02:19:32;98001.72;;;8.97;92.21
77685;BME280;66844;46.092;18.268;2023-04-01T02:20:13;98003.88;;;8.92;92.32
77685;BME280;66844;46.092;18.268;2023-04-01T02:20:45;98001.22;;;8.92;91.64
77685;BME280;66844;46.092;18.268;2023-04-01T02:21:19;97998.69;;;8.91;91.58
77685;BME280;66844;46.092;18.268;2023-04-01T02:21:55;97996.88;;;8.91;91.52
77685;BME280;66844;46.092;18.268;2023-04-01T02:22:31;98000.28;;;8.93;91.54
77685;BME280;66844;46.092;18.268;2023-04-01T02:23:03;98005.59;;;8.93;91.21
77685;BME280;66844;46.092;18.268;2023-04-01T02:23:36;98009.19;;;8.92;91.64
77685;BME280;66844;46.092;18.268;2023-04-01T02:24:11;98011.09;;;8.90;92.01
77685;BME280;66844;46.092;18.268;2023-04-01T02:24:45;98007.59;;;8.90;91.64
77685;BME280;66844;46.092;18.268;2023-04-01T02:25:28;98005.78;;;8.90;92.08
77685;BME280;66844;46.092;18.268;2023-04-01T02:26:00;98011.94;;;8.91;91.28
77685;BME280;66844;46.092;18.268;2023-04-01T02:26:31;98008.84;;;8.97;91.25
77685;BME280;66844;46.092;18.268;2023-04-01T02:27:03;98007.88;;;8.98;91.42
77685;BME280;66844;46.092;18.268;2023-04-01T02:27:33;98008.94;;;8.95;91.29
77685;BME280;66844;46.092;18.268;2023-04-01T02:28:06;98007.25;;;8.94;91.87
77685;BME280;66844;46.092;18.268;2023-04-01T02:28:39;98001.31;;;8.91;91.02
77685;BME280;66844;46.092;18.268;2023-04-01T02:29:12;98009.28;;;8.91;90.81
77685;BME280;66844;46.092;18.268;2023-04-01T02:29:43;98004.59;;;8.94;90.86
77685;BME280;66844;46.092;18.268;2023-04-01T02:30:16;98007.59;;;8.90;91.26
77685;BME280;66844;46.092;18.268;2023-04-01T02:30:49;98013.41;;;8.95;91.04
77685;BME280;66844;46.092;18.268;2023-04-01T02:31:22;98010.88;;;8.93;91.20
77685;BME280;66844;46.092;18.268;2023-04-01T02:31:54;98007.00;;;8.97;90.95
77685;BME280;66844;46.092;18.268;2023-04-01T02:32:27;98005.59;;;8.93;90.40
77685;BME280;66844;46.092;18.268;2023-04-01T02:33:00;98013.41;;;8.95;90.65
77685;BME280;66844;46.092;18.268;2023-04-01T02:33:33;98010.50;;;8.98;90.46
77685;BME280;66844;46.092;18.268;2023-04-01T02:34:04;98001.94;;;8.94;90.18
77685;BME280;66844;46.092;18.268;2023-04-01T02:34:36;97990.50;;;8.94;90.10
77685;BME280;66844;46.092;18.268;2023-04-01T02:35:09;97994.31;;;8.90;89.61
77685;BME280;66844;46.092;18.268;2023-04-01T02:35:40;98003.03;;;8.92;90.28
77685;BME280;66844;46.092;18.268;2023-04-01T02:36:15;98005.34;;;8.96;90.02
77685;BME280;66844;46.092;18.268;2023-04-01T02:36:47;98004.16;;;9.00;89.25
77685;BME280;66844;46.092;18.268;2023-04-01T02:37:18;98001.50;;;9.00;89.18
77685;BME280;66844;46.092;18.268;2023-04-01T02:37:52;98000.75;;;8.98;89.00
77685;BME280;66844;46.092;18.268;2023-04-01T02:38:23;97998.09;;;8.98;89.47
77685;BME280;66844;46.092;18.268;2023-04-01T02:38:56;97993.41;;;9.02;89.31
77685;BME280;66844;46.092;18.268;2023-04-01T02:39:32;98002.56;;;8.98;89.42
77685;BME280;66844;46.092;18.268;2023-04-01T02:40:05;97999.81;;;8.99;89.54
77685;BME280;66844;46.092;18.268;2023-04-01T02:40:50;97987.50;;;8.98;89.86
77685;BME280;66844;46.092;18.268;2023-04-01T02:41:21;97993.66;;;8.99;89.45
77685;BME280;66844;46.092;18.268;2023-04-01T02:41:52;97992.69;;;9.00;90.03
77685;BME280;66844;46.092;18.268;2023-04-01T02:42:23;97986.41;;;9.01;89.73
77685;BME280;66844;46.092;18.268;2023-04-01T02:42:54;97984.22;;;8.95;89.83
77685;BME280;66844;46.092;18.268;2023-04-01T02:43:24;97984.00;;;8.98;90.11
77685;BME280;66844;46.092;18.268;2023-04-01T02:43:55;97983.75;;;9.01;89.66
77685;BME280;66844;46.092;18.268;2023-04-01T02:44:27;97985.59;;;9.00;89.01
77685;BME280;66844;46.092;18.268;2023-04-01T02:44:58;97983.66;;;9.02;88.58
77685;BME280;66844;46.092;18.268;2023-04-01T02:45:29;97981.34;;;8.98;88.38
77685;BME280;66844;46.092;18.268;2023-04-01T02:46:00;97982.31;;;8.97;88.93
77685;BME280;66844;46.092;18.268;2023-04-01T02:46:32;97976.88;;;8.98;88.73
77685;BME280;66844;46.092;18.268;2023-04-01T02:47:02;97969.28;;;8.94;87.39
77685;BME280;66844;46.092;18.268;2023-04-01T02:47:33;97969.28;;;8.94;87.07
77685;BME280;66844;46.092;18.268;2023-04-01T02:48:04;97977.84;;;8.97;87.48
77685;BME280;66844;46.092;18.268;2023-04-01T02:48:35;97972.91;;;8.93;87.24
77685;BME280;66844;46.092;18.268;2023-04-01T02:49:06;97972.06;;;8.92;87.56
77685;BME280;66844;46.092;18.268;2023-04-01T02:49:37;97970.88;;;8.96;87.51
77685;BME280;66844;46.092;18.268;2023-04-01T02:50:08;97977.03;;;8.97;88.04
77685;BME280;66844;46.092;18.268;2023-04-01T02:50:39;97970.88;;;8.96;88.35
77685;BME280;66844;46.092;18.268;2023-04-01T02:51:10;97964.94;;;8.93;88.34
77685;BME280;66844;46.092;18.268;2023-04-01T02:51:41;97958.91;;;8.91;88.18
77685;BME280;66844;46.092;18.268;2023-04-01T02:52:11;97958.91;;;8.91;87.83
77685;BME280;66844;46.092;18.268;2023-04-01T02:52:42;97966.84;;;8.91;86.56
77685;BME280;66844;46.092;18.268;2023-04-01T02:53:13;97956.25;;;8.91;86.74
77685;BME280;66844;46.092;18.268;2023-04-01T02:53:43;97961.69;;;8.89;86.62
77685;BME280;66844;46.092;18.268;2023-04-01T02:54:14;97959.75;;;8.91;86.94
77685;BME280;66844;46.092;18.268;2023-04-01T02:54:45;97952.97;;;8.87;87.44
77685;BME280;66844;46.092;18.268;2023-04-01T02:55:16;97944.41;;;8.84;88.05
77685;BME280;66844;46.092;18.268;2023-04-01T02:55:46;97944.13;;;8.75;87.64
77685;BME280;66844;46.092;18.268;2023-04-01T02:56:20;97953.78;;;8.76;88.91
77685;BME280;66844;46.092;18.268;2023-04-01T02:56:51;97956.22;;;8.80;88.59
77685;BME280;66844;46.092;18.268;2023-04-01T02:57:22;97941.38;;;8.77;87.93
77685;BME280;66844;46.092;18.268;2023-04-01T02:57:53;97958.25;;;8.76;88.01
77685;BME280;66844;46.092;18.268;2023-04-01T02:58:23;97950.53;;;8.73;87.65
77685;BME280;66844;46.092;18.268;2023-04-01T02:58:54;97949.69;;;8.72;88.06
77685;BME280;66844;46.092;18.268;2023-04-01T02:59:25;97955.81;;;8.73;88.47
77685;BME280;66844;46.092;18.268;2023-04-01T02:59:56;97954.88;;;8.74;88.26
77685;BME280;66844;46.092;18.268;2023-04-01T03:00:27;97958.38;;;8.74;88.03
77685;BME280;66844;46.092;18.268;2023-04-01T03:00:58;97961.13;;;8.73;87.83
77685;BME280;66844;46.092;18.268;2023-04-01T03:01:28;97959.94;;;8.77;87.86
77685;BME280;66844;46.092;18.268;2023-04-01T03:01:59;97957.06;;;8.80;88.06
77685;BME280;66844;46.092;18.268;2023-04-01T03:02:29;97948.38;;;8.78;88.01
77685;BME280;66844;46.092;18.268;2023-04-01T03:03:00;97951.84;;;8.78;88.25
77685;BME280;66844;46.092;18.268;2023-04-01T03:03:31;97954.50;;;8.78;88.16
77685;BME280;66844;46.092;18.268;2023-04-01T03:04:01;97956.09;;;8.81;88.29
77685;BME280;66844;46.092;18.268;2023-04-01T03:04:33;97943.78;;;8.80;88.56
77685;BME280;66844;46.092;18.268;2023-04-01T03:05:04;97945.72;;;8.78;87.90
77685;BME280;66844;46.092;18.268;2023-04-01T03:05:36;97952.59;;;8.81;88.15
77685;BME280;66844;46.092;18.268;2023-04-01T03:06:08;97948.16;;;8.81;88.01
77685;BME280;66844;46.092;18.268;2023-04-01T03:06:39;97949.72;;;8.84;88.28
77685;BME280;66844;46.092;18.268;2023-04-01T03:07:10;97948.16;;;8.81;88.24
77685;BME280;66844;46.092;18.268;2023-04-01T03:07:41;97945.50;;;8.81;87.69
77685;BME280;66844;46.092;18.268;2023-04-01T03:08:12;97945.38;;;8.83;87.62
77685;BME280;66844;46.092;18.268;2023-04-01T03:08:43;97941.88;;;8.82;87.49
77685;BME280;66844;46.092;18.268;2023-04-01T03:09:14;97938.50;;;8.80;87.24
77685;BME280;66844;46.092;18.268;2023-04-01T03:09:45;97939.44;;;8.79;87.95
77685;BME280;66844;46.092;18.268;2023-04-01T03:10:16;97933.09;;;8.82;87.55
77685;BME280;66844;46.092;18.268;2023-04-01T03:10:47;97935.75;;;8.82;87.47
77685;BME280;66844;46.092;18.268;2023-04-01T03:11:17;97928.50;;;8.84;87.67
77685;BME280;66844;46.092;18.268;2023-04-01T03:11:48;97927.66;;;8.83;87.67
77685;BME280;66844;46.092;18.268;2023-04-01T03:12:19;97931.78;;;8.87;87.39
77685;BME280;66844;46.092;18.268;2023-04-01T03:12:50;97933.47;;;8.88;87.76
77685;BME280;66844;46.092;18.268;2023-04-01T03:13:20;97928.59;;;8.82;87.70
77685;BME280;66844;46.092;18.268;2023-04-01T03:13:51;97936.47;;;8.84;87.66
77685;BME280;66844;46.092;18.268;2023-04-01T03:14:21;97933.47;;;8.88;87.41
77685;BME280;66844;46.092;18.268;2023-04-01T03:14:52;97942.13;;;8.90;87.52